Time;durP1;ratioP1;P1;durP2;ratioP2;P2;SDS_P1;SDS_P2;PMS_P1;PMS_P2;Temp;Humidity;BMP_temperature;BMP_pressure;BME280_temperature;BME280_humidity;BME280_pressure;Samples;Min_cycle;Max_cycle;Signal;HPM_P1;HPM_P2
2021/11/05 08:09:07;;;;;;;5.35;2.20;;;;;;;19.31;40.78;102518.25;6018310;23;20031;-74
2021/11/05 08:11:35;;;;;;;8.40;2.50;;;;;;;19.40;40.42;102521.81;4946333;28;20145;-75
2021/11/05 08:14:02;;;;;;;7.82;1.92;;;;;;;19.40;40.64;102519.03;4953807;29;20023;-75
2021/11/05 08:16:28;;;;;;;7.55;1.83;;;;;;;19.29;40.94;102525.28;4954802;29;20031;-75
2021/11/05 08:18:55;;;;;;;11.48;2.58;;;;;;;19.21;41.17;102518.63;4955186;29;20520;-75
2021/11/05 08:21:21;;;;;;;10.25;2.85;;;;;;;19.23;41.17;102519.09;4937860;29;20121;-75
2021/11/05 08:23:49;;;;;;;5.68;2.05;;;;;;;19.38;41.08;102528.84;4955630;29;20102;-75
2021/11/05 08:26:16;;;;;;;7.38;2.13;;;;;;;19.46;40.86;102530.78;4955726;29;20054;-75
2021/11/05 08:28:43;;;;;;;9.27;2.63;;;;;;;19.51;40.66;102527.03;4938302;29;20493;-75
2021/11/05 08:31:11;;;;;;;9.85;2.65;;;;;;;19.44;41.00;102533.06;4952746;28;20393;-75
2021/11/05 08:33:39;;;;;;;13.55;3.10;;;;;;;19.43;40.91;102539.78;4941031;28;20123;-75
2021/11/05 08:36:05;;;;;;;5.40;1.92;;;;;;;19.31;41.23;102528.53;4921757;28;20433;-79
2021/11/05 08:38:32;;;;;;;5.70;2.20;;;;;;;19.54;40.70;102540.22;4941181;28;20036;-76
2021/11/05 08:40:58;;;;;;;11.10;2.30;;;;;;;19.29;41.39;102537.19;4939431;28;20649;-75
2021/11/05 08:43:31;;;;;;;4.72;1.80;;;;;;;19.55;40.75;102534.34;4939523;28;20049;-75
2021/11/05 08:46:02;;;;;;;5.80;2.28;;;;;;;19.50;40.91;102540.06;4939272;28;20461;-75
2021/11/05 08:48:29;;;;;;;9.20;2.08;;;;;;;19.50;40.62;102545.63;4939550;28;20435;-76
2021/11/05 08:50:59;;;;;;;7.35;2.17;;;;;;;19.57;40.88;102539.56;4948605;28;20066;-75
2021/11/05 08:53:24;;;;;;;8.05;2.08;;;;;;;19.66;40.82;102540.38;4939020;28;20031;-76
2021/11/05 08:55:50;;;;;;;11.73;3.30;;;;;;;19.76;40.54;102530.88;4936836;28;20690;-76
2021/11/05 08:58:17;;;;;;;5.28;1.88;;;;;;;19.51;41.46;102538.13;4938886;28;20031;-75
2021/11/05 09:00:43;;;;;;;5.97;1.95;;;;;;;19.84;40.45;102536.38;4944175;28;20027;-76
2021/11/05 09:03:08;;;;;;;6.53;1.73;;;;;;;19.93;40.23;102539.94;4954570;29;20078;-76
2021/11/05 09:05:36;;;;;;;9.95;2.47;;;;;;;19.45;41.41;102547.75;4954991;28;20459;-75
2021/11/05 09:08:03;;;;;;;10.30;2.80;;;;;;;19.82;40.65;102558.09;4941054;28;20024;-75
2021/11/05 09:10:29;;;;;;;8.02;2.03;;;;;;;19.84;40.55;102550.25;4938958;28;20061;-75
2021/11/05 09:12:55;;;;;;;10.43;2.72;;;;;;;19.97;40.38;102550.38;4938694;28;20031;-75
2021/11/05 09:15:23;;;;;;;10.43;2.40;;;;;;;20.02;40.36;102544.63;4945996;28;20418;-74
2021/11/05 09:17:51;;;;;;;8.70;2.40;;;;;;;20.06;40.18;102559.47;4954966;29;20030;-75
2021/11/05 09:20:18;;;;;;;4.07;1.77;;;;;;;19.86;40.69;102556.28;4954854;29;20035;-75
2021/11/05 09:22:45;;;;;;;5.55;2.33;;;;;;;20.11;40.11;102564.84;4955070;29;20030;-75
2021/11/05 09:25:11;;;;;;;8.43;2.50;;;;;;;20.04;40.28;102573.69;4954779;29;20512;-75
2021/11/05 09:27:37;;;;;;;9.80;2.67;;;;;;;20.18;40.01;102579.00;4937350;29;20036;-75
2021/11/05 09:30:08;;;;;;;10.38;2.25;;;;;;;20.12;40.11;102580.34;4935523;28;20034;-76
2021/11/05 09:32:34;;;;;;;11.38;2.22;;;;;;;20.17;40.10;102577.34;4921397;28;20800;-76
2021/11/05 09:35:00;;;;;;;8.80;2.15;;;;;;;20.19;40.06;102581.44;4944245;28;20035;-76
2021/11/05 09:37:26;;;;;;;7.55;1.88;;;;;;;20.13;40.40;102576.41;4939457;28;20139;-76
2021/11/05 09:39:51;;;;;;;6.15;2.30;;;;;;;20.20;40.39;102571.16;4943874;28;20075;-75
2021/11/05 09:42:17;;;;;;;10.10;2.58;;;;;;;20.20;40.49;102577.53;4929164;29;20035;-75
2021/11/05 09:44:44;;;;;;;7.25;2.38;;;;;;;20.36;39.91;102569.44;4954514;29;20073;-75
2021/11/05 09:47:12;;;;;;;10.77;2.72;;;;;;;20.52;40.11;102571.66;4944058;28;20027;-76
2021/11/05 09:49:37;;;;;;;8.88;2.50;;;;;;;20.61;39.98;102567.66;4951354;28;20023;-76
2021/11/05 09:52:04;;;;;;;5.25;1.80;;;;;;;20.43;40.41;102555.03;4954159;28;20058;-77
2021/11/05 09:54:32;;;;;;;9.25;2.38;;;;;;;20.57;40.27;102568.69;4954074;29;20055;-76
2021/11/05 09:56:58;;;;;;;10.75;3.42;;;;;;;20.44;40.70;102571.38;4954298;29;20509;-75
2021/11/05 09:59:25;;;;;;;7.55;2.10;;;;;;;20.31;40.94;102561.28;4954197;29;20031;-75
2021/11/05 10:01:51;;;;;;;8.77;3.22;;;;;;;20.07;41.52;102570.22;4953060;29;20035;-76
2021/11/05 10:04:17;;;;;;;5.85;2.80;;;;;;;20.33;41.00;102578.44;4953118;29;20126;-75
2021/11/05 10:07:02;;;;;;;8.00;2.35;;;;;;;20.54;40.61;102570.16;4939476;29;20032;-76
2021/11/05 10:09:44;;;;;;;12.48;2.83;;;;;;;20.60;40.56;102568.81;4936904;28;20058;-76
2021/11/05 10:12:14;;;;;;;9.05;2.78;;;;;;;20.59;40.94;102577.50;4951863;29;20031;-76
2021/11/05 10:14:42;;;;;;;5.55;2.10;;;;;;;20.70;40.81;102581.47;4952806;29;20504;-75
2021/11/05 10:17:11;;;;;;;10.88;2.55;;;;;;;20.92;40.22;102586.72;4953836;29;20449;-75
2021/11/05 10:19:48;;;;;;;7.72;2.30;;;;;;;20.75;40.88;102584.06;4954047;29;20114;-75
2021/11/05 10:22:47;;;;;;;5.30;1.58;;;;;;;20.95;40.37;102588.00;4935575;28;20644;-75
2021/11/05 10:25:21;;;;;;;5.32;1.75;;;;;;;21.15;40.04;102589.13;4953951;29;20047;-75
2021/11/05 10:28:00;;;;;;;5.60;1.80;;;;;;;21.23;39.87;102586.28;4957857;29;20114;-76
2021/11/05 10:30:26;;;;;;;9.50;2.05;;;;;;;21.23;40.03;102591.03;4940522;29;20385;-76
2021/11/05 10:33:01;;;;;;;4.82;2.42;;;;;;;21.30;39.84;102591.31;4957758;29;20079;-75
2021/11/05 10:35:27;;;;;;;4.90;1.90;;;;;;;21.14;40.13;102595.84;4957500;29;20504;-76
2021/11/05 10:37:55;;;;;;;6.18;2.03;;;;;;;20.68;41.13;102606.00;4957719;29;20111;-75
2021/11/05 10:40:21;;;;;;;7.68;2.22;;;;;;;20.98;40.48;102615.13;4957498;29;20023;-75
2021/11/05 10:42:47;;;;;;;4.03;1.88;;;;;;;21.23;39.97;102602.97;4957511;29;20114;-75
2021/11/05 10:45:15;;;;;;;6.03;1.85;;;;;;;21.27;39.78;102586.44;4957584;29;20028;-76
2021/11/05 10:47:53;;;;;;;7.55;1.83;;;;;;;21.42;39.82;102576.66;4957512;29;20024;-76
2021/11/05 10:50:50;;;;;;;6.43;2.97;;;;;;;21.48;39.88;102578.06;4940138;29;20027;-76
2021/11/05 10:53:23;;;;;;;5.03;1.70;;;;;;;21.64;39.71;102573.47;4948472;29;20038;-76
2021/11/05 10:56:12;;;;;;;4.47;1.85;;;;;;;21.70;39.70;102571.28;4957359;29;20024;-76
2021/11/05 10:58:40;;;;;;;5.63;1.55;;;;;;;21.64;40.23;102581.00;4957364;29;20039;-76
2021/11/05 11:01:14;;;;;;;5.30;2.35;;;;;;;21.37;40.79;102580.47;4957228;29;20106;-76
2021/11/05 11:03:51;;;;;;;3.80;1.30;;;;;;;21.52;40.25;102602.06;4957064;29;20035;-76
2021/11/05 11:06:22;;;;;;;4.70;1.63;;;;;;;21.63;40.26;102599.69;4957135;29;20035;-76
2021/11/05 11:08:50;;;;;;;10.15;1.95;;;;;;;21.76;39.88;102603.28;4957207;29;20462;-76
2021/11/05 11:11:35;;;;;;;6.88;2.00;;;;;;;21.51;40.56;102611.56;4957109;29;20489;-76
2021/11/05 11:14:07;;;;;;;3.92;1.90;;;;;;;21.62;40.26;102600.84;4957143;29;20035;-76
2021/11/05 11:16:40;;;;;;;7.75;3.17;;;;;;;21.52;40.31;102607.63;4957038;29;20027;-75
2021/11/05 11:19:14;;;;;;;9.10;3.20;;;;;;;21.73;39.71;102598.41;4956677;28;20043;-75
2021/11/05 11:21:46;;;;;;;9.13;2.72;;;;;;;21.42;40.37;102601.69;4956928;29;20031;-75
2021/11/05 11:24:16;;;;;;;10.40;2.33;;;;;;;21.24;40.84;102587.94;4956487;29;20028;-75
2021/11/05 11:26:42;;;;;;;10.27;2.05;;;;;;;21.17;41.01;102595.19;4957273;29;20041;-74
2021/11/05 11:29:09;;;;;;;6.90;2.72;;;;;;;21.45;40.51;102576.78;4956801;29;20474;-75
2021/11/05 11:31:36;;;;;;;3.97;1.83;;;;;;;21.67;40.00;102581.13;4956593;29;20027;-76
2021/11/05 11:34:04;;;;;;;7.38;1.80;;;;;;;21.50;40.38;102579.34;4956115;28;20485;-76
2021/11/05 11:36:36;;;;;;;14.25;2.53;;;;;;;21.77;39.72;102577.09;4956343;29;20030;-76
2021/11/05 11:39:05;;;;;;;6.50;2.00;;;;;;;21.51;40.08;102563.47;4938926;29;20026;-76
2021/11/05 11:41:32;;;;;;;7.47;2.22;;;;;;;21.73;39.77;102559.47;4956588;29;20035;-76
2021/11/05 11:44:00;;;;;;;5.63;2.67;;;;;;;21.89;39.54;102563.19;4956123;29;20550;-76
2021/11/05 11:46:27;;;;;;;8.80;2.67;;;;;;;21.84;39.65;102555.91;4954940;29;20033;-76
2021/11/05 11:48:55;;;;;;;5.45;2.20;;;;;;;21.72;39.95;102555.88;4954512;29;20051;-76
2021/11/05 11:51:29;;;;;;;5.70;2.00;;;;;;;21.75;39.96;102562.72;4954865;29;20027;-76
2021/11/05 11:54:17;;;;;;;6.47;2.15;;;;;;;21.67;39.95;102556.09;4954247;29;20168;-76
2021/11/05 11:56:44;;;;;;;7.70;2.45;;;;;;;21.65;40.16;102554.81;4945072;28;20450;-76
2021/11/05 11:59:12;;;;;;;5.65;1.70;;;;;;;21.75;39.51;102562.72;4954473;29;20428;-76
2021/11/05 12:01:41;;;;;;;7.18;2.72;;;;;;;21.41;40.60;102561.94;4956130;29;20031;-76
2021/11/05 12:04:10;;;;;;;4.35;2.00;;;;;;;21.75;39.94;102568.28;4943460;28;20066;-76
2021/11/05 12:06:59;;;;;;;3.67;1.42;;;;;;;21.63;40.52;102573.81;4940890;28;20027;-76
2021/11/05 12:09:32;;;;;;;11.60;2.75;;;;;;;22.03;39.87;102576.78;4940249;28;20035;-76
2021/11/05 12:12:19;;;;;;;5.70;1.45;;;;;;;21.37;41.34;102579.66;4940898;28;20121;-76
2021/11/05 12:15:00;;;;;;;3.25;1.30;;;;;;;22.11;39.73;102581.44;4940061;28;20421;-77
2021/11/05 12:17:25;;;;;;;5.28;2.03;;;;;;;21.92;40.22;102572.84;4922599;28;20196;-76
2021/11/05 12:19:51;;;;;;;5.53;1.38;;;;;;;21.97;39.88;102570.63;4945220;28;20791;-76
2021/11/05 12:22:17;;;;;;;3.85;1.30;;;;;;;21.97;39.79;102578.97;4941117;28;20547;-76
2021/11/05 12:24:46;;;;;;;3.95;1.98;;;;;;;22.04;39.80;102576.41;4940168;28;20035;-77
2021/11/05 12:27:16;;;;;;;7.03;1.85;;;;;;;22.08;39.47;102582.16;4923528;28;20031;-76
2021/11/05 12:29:41;;;;;;;2.85;1.20;;;;;;;22.09;39.75;102586.56;4940118;28;20035;-78
2021/11/05 12:32:20;;;;;;;3.38;1.30;;;;;;;22.41;38.54;102568.09;4940286;28;20133;-76
2021/11/05 12:35:06;;;;;;;2.67;1.20;;;;;;;22.24;39.19;102577.50;4939508;28;20032;-76
2021/11/05 12:38:08;;;;;;;2.85;0.90;;;;;;;22.05;39.31;102589.19;4922739;28;20537;-76
2021/11/05 12:40:41;;;;;;;8.13;2.35;;;;;;;22.38;39.00;102594.69;4900103;28;20199;-76
2021/11/05 12:43:27;;;;;;;5.15;2.00;;;;;;;22.65;38.56;102586.75;4939493;28;20030;-76
2021/11/05 12:46:18;;;;;;;6.82;2.17;;;;;;;22.58;38.53;102586.53;4945080;28;20143;-75
2021/11/05 12:48:48;;;;;;;1.38;0.90;;;;;;;22.23;39.09;102577.88;4955437;29;20023;-75
2021/11/05 12:51:26;;;;;;;5.93;1.80;;;;;;;22.44;38.48;102575.75;4955409;29;20034;-75
2021/11/05 12:53:55;;;;;;;2.75;1.13;;;;;;;22.31;38.42;102580.53;4941162;28;20019;-75
2021/11/05 12:56:22;;;;;;;3.45;1.10;;;;;;;22.60;38.27;102585.03;4939441;28;20453;-75
2021/11/05 12:58:48;;;;;;;5.75;2.20;;;;;;;22.94;37.59;102566.16;4936093;29;20051;-75
2021/11/05 13:01:19;;;;;;;2.20;1.20;;;;;;;22.78;38.24;102570.81;4936136;29;20447;-76
2021/11/05 13:03:44;;;;;;;2.42;1.65;;;;;;;22.63;38.46;102569.56;4938678;28;20028;-76
2021/11/05 13:06:12;;;;;;;2.85;1.20;;;;;;;22.59;38.47;102565.84;4938706;28;20578;-75
2021/11/05 13:08:41;;;;;;;2.78;1.33;;;;;;;22.73;38.17;102569.06;4943463;28;20024;-76
2021/11/05 13:11:12;;;;;;;4.78;1.55;;;;;;;22.63;38.34;102567.59;4938190;28;20126;-76
2021/11/05 13:13:53;;;;;;;2.53;1.23;;;;;;;22.35;38.62;102569.50;4939480;28;20067;-76
2021/11/05 13:16:22;;;;;;;2.92;1.17;;;;;;;22.75;37.94;102571.50;4935736;29;20486;-76
2021/11/05 13:18:47;;;;;;;8.13;1.60;;;;;;;22.69;37.85;102568.16;4939127;29;20027;-77
2021/11/05 13:21:22;;;;;;;3.75;1.30;;;;;;;22.61;38.00;102566.34;4954210;28;20433;-76
2021/11/05 13:23:47;;;;;;;8.38;2.65;;;;;;;22.53;38.07;102570.06;4954590;29;20027;-75
2021/11/05 13:26:13;;;;;;;3.50;1.88;;;;;;;22.52;38.17;102568.41;4954701;29;20026;-76
2021/11/05 13:28:39;;;;;;;2.70;1.48;;;;;;;22.59;37.97;102566.66;4937431;29;20382;-76
2021/11/05 13:31:04;;;;;;;4.03;1.88;;;;;;;22.48;38.12;102567.50;4954631;29;20031;-75
2021/11/05 13:33:31;;;;;;;3.15;1.40;;;;;;;22.62;37.93;102551.25;4954601;29;20031;-75
2021/11/05 13:36:06;;;;;;;5.60;2.10;;;;;;;22.17;38.66;102556.97;4954521;29;20470;-75
2021/11/05 13:38:38;;;;;;;2.53;0.98;;;;;;;22.38;38.32;102563.25;4954566;29;20501;-75
2021/11/05 13:41:07;;;;;;;7.15;1.90;;;;;;;22.38;38.54;102558.47;4954520;29;20034;-75
2021/11/05 13:43:36;;;;;;;2.60;1.13;;;;;;;22.55;38.21;102551.03;4954400;29;20035;-75
2021/11/05 13:46:06;;;;;;;4.25;1.77;;;;;;;22.55;38.29;102556.59;4954480;29;20066;-76
2021/11/05 13:48:37;;;;;;;5.68;1.23;;;;;;;22.45;38.30;102552.31;4954452;29;20027;-75
2021/11/05 13:51:14;;;;;;;2.03;1.15;;;;;;;22.53;37.98;102559.72;4954100;29;20031;-76
2021/11/05 13:53:53;;;;;;;5.88;1.40;;;;;;;22.31;38.74;102558.25;4954300;29;20028;-76
2021/11/05 13:56:23;;;;;;;8.80;2.23;;;;;;;22.51;38.14;102550.09;4954657;29;20528;-75
2021/11/05 13:58:55;;;;;;;2.05;1.20;;;;;;;22.57;38.21;102557.84;4953999;29;20041;-75
2021/11/05 14:01:24;;;;;;;2.80;1.00;;;;;;;22.46;38.32;102558.69;4954276;29;20038;-75
2021/11/05 14:03:51;;;;;;;5.47;1.98;;;;;;;22.53;38.37;102562.53;4954163;29;20083;-76
2021/11/05 14:06:18;;;;;;;8.50;1.85;;;;;;;22.62;38.31;102563.19;4937061;29;20389;-76
2021/11/05 14:08:48;;;;;;;5.18;1.50;;;;;;;22.71;38.20;102549.94;4954293;29;20494;-76
2021/11/05 14:11:13;;;;;;;;;;;;;;;22.47;38.48;102541.63;4954604;29;20043;-76
2021/11/05 14:13:39;;;;;;;2.47;0.98;;;;;;;22.43;38.45;102554.63;4954259;29;20029;-76
2021/11/05 14:16:12;;;;;;;8.25;1.85;;;;;;;22.34;38.57;102557.53;4952867;29;20612;-76
2021/11/05 14:18:38;;;;;;;5.90;1.20;;;;;;;22.65;38.14;102542.97;4954137;29;20061;-75
2021/11/05 14:21:25;;;;;;;3.55;1.33;;;;;;;22.69;38.17;102546.69;4953796;29;20585;-75
2021/11/05 14:24:07;;;;;;;2.63;0.80;;;;;;;22.73;37.90;102551.53;4953933;29;20031;-75
2021/11/05 14:26:33;;;;;;;5.43;1.77;;;;;;;22.60;38.31;102550.78;4954141;29;20027;-76
2021/11/05 14:29:07;;;;;;;4.70;1.40;;;;;;;22.64;38.50;102541.34;4954019;29;20027;-76
2021/11/05 14:32:02;;;;;;;2.55;1.27;;;;;;;22.25;38.83;102548.50;4954105;29;20094;-76
2021/11/05 14:34:49;;;;;;;2.35;1.38;;;;;;;22.66;38.18;102539.03;4953952;29;20027;-75
2021/11/05 14:37:18;;;;;;;3.05;1.23;;;;;;;22.53;38.44;102551.38;4923247;29;20031;-76
2021/11/05 14:39:54;;;;;;;3.65;0.90;;;;;;;22.64;38.11;102541.34;4953952;29;20049;-75
2021/11/05 14:42:28;;;;;;;3.58;1.25;;;;;;;22.64;38.39;102544.13;4953868;29;20124;-76
2021/11/05 14:44:55;;;;;;;4.35;1.35;;;;;;;22.78;38.14;102543.75;4936751;29;20031;-76
2021/11/05 14:47:22;;;;;;;5.53;1.15;;;;;;;22.72;38.28;102542.38;4953915;29;20023;-76
2021/11/05 14:49:48;;;;;;;5.43;1.73;;;;;;;22.80;37.72;102535.84;4953392;29;20038;-76
2021/11/05 14:52:17;;;;;;;8.18;1.15;;;;;;;22.71;37.94;102533.22;4936816;29;20031;-82
2021/11/05 14:54:43;;;;;;;4.85;1.27;;;;;;;22.65;38.41;102520.69;4953935;29;20034;-79
2021/11/05 14:57:20;;;;;;;7.32;2.25;;;;;;;22.69;38.31;102526.38;4953724;29;20038;-77
2021/11/05 14:59:48;;;;;;;2.85;2.03;;;;;;;22.76;38.13;102531.34;4953717;29;20618;-76
2021/11/05 15:02:36;;;;;;;8.00;6.22;;;;;;;22.81;38.26;102534.69;4953754;29;20428;-76
2021/11/05 15:05:22;;;;;;;17.73;7.47;;;;;;;22.80;38.37;102523.91;4953821;29;20027;-75
2021/11/05 15:08:01;;;;;;;12.20;2.92;;;;;;;22.83;37.91;102518.44;4953310;29;20042;-76
2021/11/05 15:10:31;;;;;;;12.30;2.70;;;;;;;22.84;38.18;102514.47;4954984;28;20062;-76
2021/11/05 15:12:57;;;;;;;;;;;;;;;22.38;39.09;102521.47;4957598;29;20156;-75
2021/11/05 15:15:24;;;;;;;12.30;6.30;;;;;;;22.86;37.85;102514.16;4939887;29;19914;-75
2021/11/05 15:17:50;;;;;;;16.75;11.85;;;;;;;22.88;38.26;102525.75;4956805;29;20024;-75
2021/11/05 15:20:15;;;;;;;10.45;3.55;;;;;;;22.90;38.32;102521.47;4955487;29;20031;-75
2021/11/05 15:22:41;;;;;;;3.33;1.50;;;;;;;22.86;38.52;102517.75;4955434;29;20402;-75
2021/11/05 15:25:07;;;;;;;6.15;1.85;;;;;;;22.90;38.25;102512.28;4956082;29;20102;-79
2021/11/05 15:27:37;;;;;;;4.10;1.20;;;;;;;22.84;38.59;102516.47;4956102;29;20019;-75
2021/11/05 15:30:08;;;;;;;14.65;8.82;;;;;;;22.92;38.03;102510.75;4955900;29;20031;-75
2021/11/05 15:32:34;;;;;;;8.20;4.55;;;;;;;22.87;38.34;102505.44;4956003;29;20422;-76
2021/11/05 15:35:00;;;;;;;7.05;6.32;;;;;;;22.84;38.50;102508.09;4956010;29;20027;-76
2021/11/05 15:37:26;;;;;;;3.22;2.20;;;;;;;22.64;38.89;102512.69;4955904;29;20028;-76
2021/11/05 15:39:51;;;;;;;16.65;4.32;;;;;;;22.83;38.50;102518.44;4954634;29;20023;-76
2021/11/05 15:42:17;;;;;;;5.20;1.98;;;;;;;22.79;38.50;102513.91;4949363;28;20027;-76
2021/11/05 15:44:42;;;;;;;8.77;2.20;;;;;;;22.52;39.00;102513.53;4938076;28;20024;-76
2021/11/05 15:47:08;;;;;;;6.78;2.78;;;;;;;22.66;38.93;102515.91;4939701;28;20031;-76
2021/11/05 15:49:34;;;;;;;6.00;2.72;;;;;;;22.28;39.42;102521.94;4955172;28;20028;-76
2021/11/05 15:51:59;;;;;;;5.95;3.03;;;;;;;22.55;38.76;102521.19;4954925;29;20397;-77
2021/11/05 15:54:28;;;;;;;5.45;3.85;;;;;;;22.42;39.31;102525.16;4954824;29;20086;-77
2021/11/05 15:56:54;;;;;;;6.32;4.07;;;;;;;22.63;38.83;102528.59;4956346;28;20378;-76
2021/11/05 15:59:20;;;;;;;9.10;3.92;;;;;;;22.62;38.76;102528.94;4955623;28;20032;-76
2021/11/05 16:01:46;;;;;;;8.02;4.25;;;;;;;22.64;38.78;102533.00;4954963;28;20118;-77
2021/11/05 16:04:11;;;;;;;6.03;2.70;;;;;;;22.48;39.20;102526.53;4955407;28;20498;-76
2021/11/05 16:06:37;;;;;;;5.68;3.33;;;;;;;22.62;39.00;102523.38;4956131;28;20070;-76
2021/11/05 16:09:03;;;;;;;9.93;3.53;;;;;;;22.68;39.09;102527.53;4956078;28;20023;-76
2021/11/05 16:11:28;;;;;;;9.18;4.25;;;;;;;22.62;39.01;102535.34;4955930;29;20520;-77
2021/11/05 16:13:54;;;;;;;11.25;3.10;;;;;;;22.63;39.19;102531.38;4955939;29;20023;-76
2021/11/05 16:16:20;;;;;;;9.40;3.50;;;;;;;22.71;39.01;102536.00;4955924;28;20620;-76
2021/11/05 16:18:47;;;;;;;6.72;3.33;;;;;;;22.62;39.28;102528.94;4955663;28;20031;-76
2021/11/05 16:21:15;;;;;;;12.05;3.53;;;;;;;22.45;39.57;102532.81;4954617;28;20026;-76
2021/11/05 16:23:44;;;;;;;11.98;3.15;;;;;;;22.62;39.35;102515.81;4947927;29;20031;-75
2021/11/05 16:26:09;;;;;;;14.75;3.20;;;;;;;22.47;39.73;102533.28;4954530;29;20524;-76
2021/11/05 16:28:36;;;;;;;8.02;2.88;;;;;;;22.66;39.18;102525.09;4954727;29;20039;-75
2021/11/05 16:31:01;;;;;;;5.30;2.75;;;;;;;22.68;38.99;102525.56;4954343;28;20034;-75
2021/11/05 16:33:27;;;;;;;5.57;2.40;;;;;;;22.67;39.34;102523.94;4954370;29;20031;-75
2021/11/05 16:35:54;;;;;;;4.40;2.53;;;;;;;22.69;39.33;102527.19;4937001;29;20023;-75
2021/11/05 16:38:20;;;;;;;6.45;4.25;;;;;;;22.76;38.84;102534.94;4954237;29;20381;-75
2021/11/05 16:40:46;;;;;;;8.75;3.53;;;;;;;22.69;39.21;102541.13;4954296;29;20031;-75
2021/11/05 16:43:12;;;;;;;5.75;2.25;;;;;;;22.66;39.16;102536.22;4954022;29;20030;-76
2021/11/05 16:45:38;;;;;;;3.88;1.70;;;;;;;22.68;39.20;102533.94;4954125;29;20481;-76
2021/11/05 16:48:05;;;;;;;2.92;1.92;;;;;;;22.50;39.66;102532.56;4936812;29;20034;-75
2021/11/05 16:50:34;;;;;;;4.68;1.80;;;;;;;22.37;39.59;102537.38;4954011;29;20027;-75
2021/11/05 16:53:02;;;;;;;9.82;2.33;;;;;;;22.40;39.47;102538.63;4934116;29;20031;-76
2021/11/05 16:55:30;;;;;;;9.15;2.40;;;;;;;22.34;39.51;102534.44;4953836;29;20056;-76
2021/11/05 16:57:56;;;;;;;8.35;2.05;;;;;;;22.15;40.10;102532.28;4931948;29;20031;-76
2021/11/05 17:00:23;;;;;;;12.38;3.63;;;;;;;22.23;39.97;102528.56;4953779;29;20304;-75
2021/11/05 17:02:49;;;;;;;2.50;1.48;;;;;;;22.14;40.14;102525.06;4941543;28;20054;-76
2021/11/05 17:05:17;;;;;;;4.32;2.20;;;;;;;22.20;39.69;102525.66;4935980;28;20031;-76
2021/11/05 17:07:44;;;;;;;6.65;2.28;;;;;;;22.05;39.93;102527.94;4937790;28;20023;-76
2021/11/05 17:10:12;;;;;;;8.30;2.63;;;;;;;22.08;40.10;102529.25;4936302;28;20040;-75
2021/11/05 17:12:38;;;;;;;15.50;2.72;;;;;;;22.11;39.83;102526.59;4953564;29;20035;-75
2021/11/05 17:15:07;;;;;;;8.43;1.90;;;;;;;22.11;39.85;102532.16;4953635;28;20389;-75
2021/11/05 17:17:34;;;;;;;9.95;3.17;;;;;;;22.14;39.94;102533.41;4954190;29;20462;-76
2021/11/05 17:19:59;;;;;;;7.32;2.28;;;;;;;22.05;39.82;102533.50;4937500;29;20031;-75
2021/11/05 17:22:25;;;;;;;3.97;2.13;;;;;;;22.07;39.76;102531.22;4952240;29;20046;-75
2021/11/05 17:24:51;;;;;;;8.70;2.58;;;;;;;22.11;40.15;102528.56;4936261;29;20397;-74
2021/11/05 17:27:16;;;;;;;7.00;1.98;;;;;;;22.21;39.69;102530.84;4954113;28;20492;-75
2021/11/05 17:29:42;;;;;;;3.03;1.17;;;;;;;22.05;39.95;102519.59;4954329;29;20408;-75
2021/11/05 17:32:07;;;;;;;2.33;1.33;;;;;;;22.09;39.86;102526.13;4952867;28;20034;-75
2021/11/05 17:34:33;;;;;;;3.80;1.75;;;;;;;22.08;40.21;102530.06;4934085;29;20446;-75
2021/11/05 17:36:59;;;;;;;2.30;1.17;;;;;;;22.12;39.60;102521.81;4954322;29;20059;-74
2021/11/05 17:39:25;;;;;;;6.55;2.60;;;;;;;22.11;39.72;102520.22;4954537;29;20162;-74
2021/11/05 17:41:51;;;;;;;7.00;1.52;;;;;;;22.06;39.85;102526.78;4937647;29;20035;-75
2021/11/05 17:44:16;;;;;;;3.42;1.38;;;;;;;22.05;39.99;102522.38;4954465;29;20034;-74
2021/11/05 17:46:42;;;;;;;3.25;1.30;;;;;;;22.13;39.51;102520.66;4954598;29;20042;-75
2021/11/05 17:49:08;;;;;;;8.07;2.60;;;;;;;22.10;39.81;102522.19;4954454;29;20039;-75
2021/11/05 17:51:34;;;;;;;9.45;4.78;;;;;;;21.94;39.99;102526.78;4954373;29;20027;-74
2021/11/05 17:54:09;;;;;;;9.30;2.80;;;;;;;22.00;39.92;102530.16;4950884;28;20039;-75
2021/11/05 17:56:40;;;;;;;16.73;8.95;;;;;;;21.93;40.13;102521.59;4939314;28;20051;-75
2021/11/05 17:59:12;;;;;;;32.38;23.40;;;;;;;22.10;39.57;102519.41;4939178;28;20053;-75
2021/11/05 18:01:41;;;;;;;29.20;21.67;;;;;;;22.12;39.57;102511.50;4938783;28;20066;-75
2021/11/05 18:04:12;;;;;;;19.98;10.93;;;;;;;22.07;39.88;102511.72;4937948;28;20493;-75
2021/11/05 18:06:39;;;;;;;9.10;3.33;;;;;;;21.95;39.92;102510.91;4943821;28;20086;-75
2021/11/05 18:09:05;;;;;;;12.95;8.25;;;;;;;21.95;39.90;102508.94;4954217;29;20054;-75
2021/11/05 18:11:31;;;;;;;7.10;3.50;;;;;;;22.05;39.81;102516.81;4954049;29;20051;-74
2021/11/05 18:13:56;;;;;;;13.13;6.57;;;;;;;22.05;39.70;102514.03;4954109;29;20390;-76
2021/11/05 18:16:23;;;;;;;6.30;5.10;;;;;;;21.93;39.95;102518.81;4936431;29;20032;-75
2021/11/05 18:18:49;;;;;;;11.40;6.63;;;;;;;21.98;39.85;102516.56;4951065;29;20031;-75
2021/11/05 18:21:14;;;;;;;10.82;5.00;;;;;;;22.07;39.89;102522.84;4936059;29;20042;-75
2021/11/05 18:23:40;;;;;;;6.63;4.45;;;;;;;22.04;39.83;102517.16;4952553;29;20125;-75
2021/11/05 18:26:06;;;;;;;9.93;5.03;;;;;;;22.11;39.61;102517.41;4936174;29;20669;-75
2021/11/05 18:28:31;;;;;;;5.93;3.65;;;;;;;22.11;39.66;102521.00;4935192;29;20046;-76
2021/11/05 18:30:57;;;;;;;7.68;4.47;;;;;;;21.96;39.92;102518.91;4953129;29;20849;-76
2021/11/05 18:33:25;;;;;;;8.73;4.80;;;;;;;22.08;39.62;102526.47;4952316;28;20047;-77
2021/11/05 18:35:51;;;;;;;6.28;4.20;;;;;;;22.09;39.86;102530.88;4952783;29;20059;-76
2021/11/05 18:38:17;;;;;;;6.97;3.72;;;;;;;22.14;39.38;102514.78;4935148;29;20090;-77
2021/11/05 18:40:44;;;;;;;5.88;3.30;;;;;;;22.01;39.85;102524.25;4952499;28;20055;-77
2021/11/05 18:43:12;;;;;;;15.77;4.50;;;;;;;21.96;40.20;102521.69;4946174;28;20413;-75
2021/11/05 18:45:38;;;;;;;15.82;4.63;;;;;;;21.98;40.29;102522.13;4940532;28;20035;-76
2021/11/05 18:48:06;;;;;;;9.50;3.35;;;;;;;21.92;40.29;102515.22;4953241;28;20047;-76
2021/11/05 18:50:35;;;;;;;9.88;3.15;;;;;;;22.00;39.85;102522.63;4955373;29;20112;-76
2021/11/05 18:53:04;;;;;;;4.80;2.38;;;;;;;22.09;39.62;102522.53;4954611;29;20043;-76
2021/11/05 18:55:32;;;;;;;4.18;2.60;;;;;;;22.13;39.70;102517.88;4955459;28;20023;-76
2021/11/05 18:58:02;;;;;;;8.35;2.85;;;;;;;22.24;39.35;102521.81;4954956;28;20039;-77
2021/11/05 19:00:39;;;;;;;8.57;2.88;;;;;;;22.10;39.67;102522.19;4943646;28;20023;-77
2021/11/05 19:03:15;;;;;;;5.38;3.08;;;;;;;21.75;40.26;102523.75;4943450;28;20046;-76
2021/11/05 19:05:50;;;;;;;9.93;3.55;;;;;;;21.89;39.70;102519.47;4944767;28;20019;-77
2021/11/05 19:08:17;;;;;;;5.20;2.80;;;;;;;21.85;40.02;102513.00;4938309;28;20050;-77
2021/11/05 19:10:47;;;;;;;23.00;4.55;;;;;;;21.80;39.76;102515.19;4936141;28;20047;-76
2021/11/05 19:13:15;;;;;;;10.52;3.05;;;;;;;21.67;40.24;102510.75;4935185;28;20051;-74
2021/11/05 19:15:43;;;;;;;11.75;3.17;;;;;;;21.97;39.58;102516.94;4937548;28;20137;-77
2021/11/05 19:18:09;;;;;;;6.57;1.40;;;;;;;21.83;39.64;102512.50;4919334;28;20118;-75
2021/11/05 19:20:35;;;;;;;8.32;2.42;;;;;;;21.88;39.39;102517.03;4937204;28;20964;-76
2021/11/05 19:23:00;;;;;;;9.23;2.70;;;;;;;21.96;39.26;102515.31;4937099;28;20045;-76
2021/11/05 19:25:29;;;;;;;7.07;1.90;;;;;;;21.92;39.25;102517.19;4937582;28;20027;-76
2021/11/05 19:27:55;;;;;;;4.43;1.80;;;;;;;22.02;38.90;102520.31;4949233;28;20093;-78
2021/11/05 19:30:21;;;;;;;3.28;1.77;;;;;;;21.90;39.44;102514.72;4945684;29;20047;-77
2021/11/05 19:32:53;;;;;;;5.90;1.65;;;;;;;22.01;39.25;102515.91;4953608;28;20043;-77
2021/11/05 19:35:22;;;;;;;9.57;4.10;;;;;;;21.86;39.59;102511.03;4953852;28;20038;-77
2021/11/05 19:37:49;;;;;;;4.55;1.98;;;;;;;21.86;39.32;102511.03;4954012;28;20098;-77
2021/11/05 19:40:18;;;;;;;4.18;1.80;;;;;;;21.86;39.49;102509.06;4937462;29;20653;-77
2021/11/05 19:42:45;;;;;;;5.13;2.40;;;;;;;21.89;39.32;102513.09;4937020;29;20106;-76